Friendship, MD (20758)

4:43 AM EST on December 03, 2016 (GMT -0500)
Tracy's Lane | | Change Station

Elev 104 ft 38.77 °N, 76.59 °W | Updated 4 seconds ago

Overcast
Overcast
42.0 °F
Feels Like 42 °F
N
2.3
Wind Variable Wind from WSW
Gusts 2.3 mph

Today
High -- | Low -- °F
--% Chance of Precip.
Yesterday
High -- | Low -- °F
Precip. -- in
Pressure 30.15 in
Visibility 10.0 miles
Clouds Mostly Cloudy 4400 ft
Overcast 5500 ft
Windchill 42 °F
Dew Point 31 °F
Humidity 62%
Rainfall 0.00 in
Snow Depth Not available.
7:07 AM 4:44 PM
Waxing Crescent, 14% visible
METAR KADW 030858Z AUTO 29008KT 10SM BKN044 OVC055 06/M02 A3012 RMK AO2 SLP208 T00591022 50002
Pressure 30.15 in
Visibility 10.0 miles
Clouds Mostly Cloudy 4400 ft
Overcast 5500 ft
Windchill 42 °F
Dew Point 31 °F
Humidity 62%
Rainfall 0.00 in
Snow Depth Not available.
7:07 AM 4:44 PM
Waxing Crescent, 14% visible
METAR KADW 030858Z AUTO 29008KT 10SM BKN044 OVC055 06/M02 A3012 RMK AO2 SLP208 T00591022 50002

10-Day Weather Forecast

Almanac

Astronomy

Dec. 03, 2016 Rise Set
Actual Time
Civil Twilight
Nautical Twilight
Astronomical Twilight
Moon
Length of Visible Light
Length of Day
Tomorrow will be .
, % of the Moon is Illuminated

Today's Extremes

State Highs State Lows

Community

WunderPhotos

Upload Photos

1,955,434 photos uploaded!

WunderBlog® & News

Nearby

Air Quality

  Air Quality AQ Index Pollutant
Not available.

Snow Depth

Station Depth Elevation

Earthquake Activity

City Distance Mag. Time & Date
Minimum magnitude displayed is 2.5.

Coastal Water Temperatures

Place Temperature

Stations

Nearby Weather Stations

Station Location Temp. Windchill Dew Point Humidity Wind Precip. Elev Updated Type
                   

Watches & Warnings

There are currently no watches in effect.